Time;durP1;ratioP1;P1;durP2;ratioP2;P2;SDS_P1;SDS_P2;PMS_P1;PMS_P2;Temp;Humidity;BMP_temperature;BMP_pressure;BME280_temperature;BME280_humidity;BME280_pressure;Samples;Min_cycle;Max_cycle;Signal;HPM_P1;HPM_P2
2021/12/09 00:00:15;;;;;;;12.97;4.73;;;;;;;;;;4809373;29;20461;-88
2021/12/09 00:02:42;;;;;;;17.13;5.17;;;;;;;;;;4820675;29;20459;-88
2021/12/09 00:05:11;;;;;;;18.43;3.20;;;;;;;;;;4806136;29;20537;-88
2021/12/09 00:07:42;;;;;;;17.00;3.60;;;;;;;;;;4805683;29;20458;-88
2021/12/09 00:10:11;;;;;;;8.03;2.43;;;;;;;;;;4804773;29;20458;-88
2021/12/09 00:12:39;;;;;;;15.70;3.40;;;;;;;;;;4822320;29;20449;-88
2021/12/09 00:15:07;;;;;;;12.57;3.00;;;;;;;;;;4823963;29;20581;-88
2021/12/09 00:17:34;;;;;;;10.27;2.97;;;;;;;;;;4795562;29;20460;-88
2021/12/09 00:20:03;;;;;;;15.50;4.23;;;;;;;;;;4823709;29;20933;-87
2021/12/09 00:22:30;;;;;;;11.47;3.70;;;;;;;;;;4823600;29;20556;-88
2021/12/09 00:24:57;;;;;;;12.17;3.93;;;;;;;;;;4804916;29;20454;-88
2021/12/09 00:27:25;;;;;;;12.73;4.10;;;;;;;;;;4805961;29;20446;-88
2021/12/09 00:29:52;;;;;;;17.50;4.50;;;;;;;;;;4820654;29;20446;-88
2021/12/09 00:32:21;;;;;;;10.17;3.67;;;;;;;;;;4819362;29;20961;-89
2021/12/09 00:34:50;;;;;;;21.57;4.87;;;;;;;;;;4823572;29;20445;-88
2021/12/09 00:37:25;;;;;;;9.60;3.10;;;;;;;;;;4823687;29;20449;-88
2021/12/09 00:39:53;;;;;;;12.63;3.47;;;;;;;;;;4824328;29;20591;-87
2021/12/09 00:42:21;;;;;;;22.77;5.10;;;;;;;;;;4793723;29;20454;-87
2021/12/09 00:44:49;;;;;;;19.30;6.37;;;;;;;;;;4793866;29;20469;-89
2021/12/09 00:47:16;;;;;;;15.20;3.70;;;;;;;;;;4808028;29;20533;-89
2021/12/09 00:49:44;;;;;;;12.00;3.20;;;;;;;;;;4823048;29;20453;-88
2021/12/09 00:52:11;;;;;;;17.03;3.23;;;;;;;;;;4822334;29;20441;-88
2021/12/09 00:54:41;;;;;;;23.60;4.27;;;;;;;;;;4823214;29;20533;-89
2021/12/09 00:57:10;;;;;;;16.30;3.47;;;;;;;;;;4807908;29;20861;-88
2021/12/09 00:59:37;;;;;;;14.60;3.57;;;;;;;;;;4808041;29;20493;-88
2021/12/09 01:02:05;;;;;;;16.60;4.60;;;;;;;;;;4808157;29;20536;-88
2021/12/09 01:04:33;;;;;;;11.13;3.90;;;;;;;;;;4823689;29;20445;-89
2021/12/09 01:07:01;;;;;;;12.23;3.30;;;;;;;;;;4807837;29;20974;-88
2021/12/09 01:09:28;;;;;;;11.80;3.50;;;;;;;;;;4823514;29;20457;-88
2021/12/09 01:11:55;;;;;;;17.30;4.27;;;;;;;;;;4807476;29;20445;-88
2021/12/09 01:14:23;;;;;;;13.10;4.30;;;;;;;;;;4823487;29;20449;-88
2021/12/09 01:16:52;;;;;;;19.17;5.50;;;;;;;;;;4822953;29;20811;-89
2021/12/09 01:19:20;;;;;;;10.50;2.90;;;;;;;;;;4807461;29;21185;-88
2021/12/09 01:21:48;;;;;;;12.37;3.60;;;;;;;;;;4809031;29;20457;-88
2021/12/09 01:24:16;;;;;;;21.70;3.53;;;;;;;;;;4824707;29;20457;-88
2021/12/09 01:26:48;;;;;;;14.30;3.10;;;;;;;;;;4825740;29;20449;-88
2021/12/09 01:29:20;;;;;;;12.97;3.40;;;;;;;;;;4797117;29;20859;-89
2021/12/09 01:31:57;;;;;;;15.50;3.30;;;;;;;;;;4796601;29;20457;-88
2021/12/09 01:34:25;;;;;;;16.20;3.23;;;;;;;;;;4797369;29;20485;-88
2021/12/09 01:36:53;;;;;;;12.07;4.03;;;;;;;;;;4825569;29;20441;-88
2021/12/09 01:39:21;;;;;;;19.37;2.93;;;;;;;;;;4811401;29;20505;-88
2021/12/09 01:41:48;;;;;;;11.03;3.63;;;;;;;;;;4811205;29;20967;-88
2021/12/09 01:44:16;;;;;;;12.87;3.53;;;;;;;;;;4811534;29;20449;-88
2021/12/09 01:46:43;;;;;;;13.27;2.83;;;;;;;;;;4807796;29;20535;-88
2021/12/09 01:49:11;;;;;;;14.03;2.43;;;;;;;;;;4823052;29;20450;-88
2021/12/09 01:51:41;;;;;;;10.13;2.43;;;;;;;;;;4822910;29;20825;-88
2021/12/09 01:54:08;;;;;;;10.87;3.00;;;;;;;;;;4810287;29;20488;-88
2021/12/09 01:56:36;;;;;;;8.60;2.67;;;;;;;;;;4826071;29;20552;-88
2021/12/09 01:59:04;;;;;;;8.87;2.00;;;;;;;;;;4827021;29;20499;-88
2021/12/09 02:01:33;;;;;;;7.60;2.33;;;;;;;;;;4825244;29;20460;-89
2021/12/09 02:04:02;;;;;;;10.33;3.00;;;;;;;;;;4825729;29;20944;-88
2021/12/09 02:06:30;;;;;;;18.63;3.47;;;;;;;;;;4825677;29;20500;-88
2021/12/09 02:08:57;;;;;;;14.83;3.13;;;;;;;;;;4825862;29;20556;-88
2021/12/09 02:11:25;;;;;;;10.20;2.90;;;;;;;;;;4825996;29;20826;-88
2021/12/09 02:13:56;;;;;;;10.40;3.97;;;;;;;;;;4825787;29;20454;-89
2021/12/09 02:16:24;;;;;;;11.23;3.93;;;;;;;;;;4806671;29;20557;-88
2021/12/09 02:18:52;;;;;;;14.97;3.57;;;;;;;;;;4807271;29;20489;-89
2021/12/09 02:21:20;;;;;;;8.63;2.90;;;;;;;;;;4814426;29;20454;-88
2021/12/09 02:23:49;;;;;;;13.00;3.23;;;;;;;;;;4795481;29;20453;-88
2021/12/09 02:26:18;;;;;;;15.17;3.57;;;;;;;;;;4825021;29;20940;-88
2021/12/09 02:28:45;;;;;;;8.30;2.93;;;;;;;;;;4810463;29;20808;-88
2021/12/09 02:31:13;;;;;;;10.30;3.40;;;;;;;;;;4824962;29;20553;-88
2021/12/09 02:33:42;;;;;;;17.53;3.20;;;;;;;;;;4809371;29;20904;-88
2021/12/09 02:36:10;;;;;;;7.20;2.60;;;;;;;;;;4825005;29;20453;-88
2021/12/09 02:38:43;;;;;;;16.60;2.90;;;;;;;;;;4825403;29;20489;-88
2021/12/09 02:41:16;;;;;;;7.00;2.57;;;;;;;;;;4808860;29;20493;-88
2021/12/09 02:43:44;;;;;;;15.53;2.40;;;;;;;;;;4825709;29;20797;-88
2021/12/09 02:46:12;;;;;;;5.33;1.87;;;;;;;;;;4809770;29;20481;-88
2021/12/09 02:48:42;;;;;;;10.10;2.40;;;;;;;;;;4825153;29;20450;-89
2021/12/09 02:51:10;;;;;;;9.70;2.23;;;;;;;;;;4757061;30;20871;-89
2021/12/09 02:53:38;;;;;;;10.03;2.20;;;;;;;;;;4737670;30;20457;-89
2021/12/09 02:56:05;;;;;;;9.77;2.20;;;;;;;;;;4738130;30;20945;-89
2021/12/09 02:58:34;;;;;;;7.80;2.17;;;;;;;;;;4737608;30;20464;-89
2021/12/09 03:01:15;;;;;;;12.00;2.30;;;;;;;;;;4738199;30;20452;-88
2021/12/09 03:03:50;;;;;;;12.93;2.13;;;;;;;;;;4738094;30;20453;-89
2021/12/09 03:06:18;;;;;;;16.20;3.00;;;;;;;;;;4738022;30;20463;-89
2021/12/09 03:08:46;;;;;;;13.17;3.20;;;;;;;;;;4737849;30;20468;-88
2021/12/09 03:11:15;;;;;;;13.67;2.50;;;;;;;;;;4737395;30;20453;-89
2021/12/09 03:13:43;;;;;;;18.07;2.33;;;;;;;;;;4737869;30;20456;-89
2021/12/09 03:16:11;;;;;;;16.00;2.30;;;;;;;;;;4776098;29;20544;-89
2021/12/09 03:18:39;;;;;;;6.20;1.83;;;;;;;;;;4809052;29;20553;-89
2021/12/09 03:21:25;;;;;;;6.00;1.90;;;;;;;;;;4809828;29;20450;-90
2021/12/09 03:23:53;;;;;;;9.33;2.17;;;;;;;;;;4824807;29;20457;-89
2021/12/09 03:26:25;;;;;;;9.23;2.20;;;;;;;;;;4823404;29;20461;-89
2021/12/09 03:28:53;;;;;;;8.83;1.83;;;;;;;;;;4808924;29;20500;-89
2021/12/09 03:31:21;;;;;;;7.53;2.13;;;;;;;;;;4809245;29;20449;-88
2021/12/09 03:33:48;;;;;;;10.40;2.67;;;;;;;;;;4824089;29;20552;-88
2021/12/09 03:36:16;;;;;;;6.63;2.03;;;;;;;;;;4805896;29;20462;-89
2021/12/09 03:38:43;;;;;;;7.33;1.80;;;;;;;;;;4821225;29;20519;-88
2021/12/09 03:41:13;;;;;;;11.70;3.13;;;;;;;;;;4809101;29;20460;-89
2021/12/09 03:43:41;;;;;;;21.40;2.87;;;;;;;;;;4824406;29;20441;-89
2021/12/09 03:46:11;;;;;;;18.17;2.73;;;;;;;;;;4808405;29;20560;-89
2021/12/09 03:48:39;;;;;;;10.43;2.90;;;;;;;;;;4825180;29;20499;-88
2021/12/09 03:51:07;;;;;;;10.00;2.03;;;;;;;;;;4809561;29;20481;-88
2021/12/09 03:53:36;;;;;;;9.00;2.80;;;;;;;;;;4824234;29;20971;-88
2021/12/09 03:56:06;;;;;;;11.03;2.43;;;;;;;;;;4820676;29;20450;-88
2021/12/09 03:58:33;;;;;;;6.47;2.23;;;;;;;;;;4811975;29;20449;-89
2021/12/09 04:01:01;;;;;;;5.77;2.00;;;;;;;;;;4794001;29;20562;-88
2021/12/09 04:03:29;;;;;;;6.53;1.90;;;;;;;;;;4794069;29;20601;-89
2021/12/09 04:05:58;;;;;;;21.87;1.97;;;;;;;;;;4793598;29;20453;-88
2021/12/09 04:08:27;;;;;;;9.07;1.90;;;;;;;;;;4823764;29;20982;-88
2021/12/09 04:10:55;;;;;;;11.23;2.50;;;;;;;;;;4807438;29;20989;-88
2021/12/09 04:13:24;;;;;;;8.50;2.00;;;;;;;;;;4823890;29;20455;-88
2021/12/09 04:15:51;;;;;;;6.57;1.57;;;;;;;;;;4823710;29;20457;-89
2021/12/09 04:18:21;;;;;;;9.37;2.63;;;;;;;;;;4808764;29;20453;-88
2021/12/09 04:20:49;;;;;;;8.80;2.40;;;;;;;;;;4793568;29;20489;-89
2021/12/09 04:23:16;;;;;;;13.73;2.80;;;;;;;;;;4808583;29;20453;-88
2021/12/09 04:25:44;;;;;;;7.00;2.33;;;;;;;;;;4820249;29;20458;-88
2021/12/09 04:28:12;;;;;;;10.50;2.50;;;;;;;;;;4820404;29;20450;-88
2021/12/09 04:30:41;;;;;;;12.93;2.63;;;;;;;;;;4807547;29;20449;-89
2021/12/09 04:33:08;;;;;;;6.73;2.47;;;;;;;;;;4823756;29;20453;-88
2021/12/09 04:35:36;;;;;;;11.93;2.60;;;;;;;;;;4808200;29;20890;-88
2021/12/09 04:38:05;;;;;;;14.60;3.17;;;;;;;;;;4809000;29;20872;-88
2021/12/09 04:40:32;;;;;;;17.00;2.50;;;;;;;;;;4824982;29;20512;-88
2021/12/09 04:43:02;;;;;;;23.23;3.17;;;;;;;;;;4808699;29;20438;-88
2021/12/09 04:45:30;;;;;;;14.53;2.60;;;;;;;;;;4793423;29;20481;-89
2021/12/09 04:47:58;;;;;;;15.23;3.57;;;;;;;;;;4823792;29;20456;-88
2021/12/09 04:50:26;;;;;;;14.30;3.67;;;;;;;;;;4808455;29;20494;-88
2021/12/09 04:52:54;;;;;;;14.43;3.47;;;;;;;;;;4803944;29;20455;-88
2021/12/09 04:55:21;;;;;;;10.30;4.03;;;;;;;;;;4817737;29;20825;-88
2021/12/09 04:57:49;;;;;;;12.17;3.70;;;;;;;;;;4796534;29;20541;-88
2021/12/09 05:00:18;;;;;;;6.20;2.53;;;;;;;;;;4812382;29;20492;-88
2021/12/09 05:03:11;;;;;;;15.07;2.10;;;;;;;;;;4811699;29;20475;-88
2021/12/09 05:05:41;;;;;;;7.90;2.33;;;;;;;;;;4827119;29;20446;-87
2021/12/09 05:08:10;;;;;;;14.50;2.17;;;;;;;;;;4827945;29;20464;-88
2021/12/09 05:10:53;;;;;;;11.60;1.90;;;;;;;;;;4811849;29;20846;-88
2021/12/09 05:13:22;;;;;;;12.70;2.83;;;;;;;;;;4811416;29;20509;-88
2021/12/09 05:15:50;;;;;;;5.90;1.63;;;;;;;;;;4827094;29;20525;-89
2021/12/09 05:18:18;;;;;;;11.70;2.70;;;;;;;;;;4811579;29;20453;-89
2021/12/09 05:20:45;;;;;;;12.50;2.70;;;;;;;;;;4811434;29;20508;-89
2021/12/09 05:23:13;;;;;;;19.77;4.30;;;;;;;;;;4826745;29;20460;-89
2021/12/09 05:25:42;;;;;;;21.00;2.97;;;;;;;;;;4807997;29;20458;-89
2021/12/09 05:28:15;;;;;;;9.73;2.87;;;;;;;;;;4811600;29;20452;-89
2021/12/09 05:33:32;;;;;;;17.63;3.20;;;;;;;;;;4813749;29;20449;-89
2021/12/09 05:35:59;;;;;;;15.30;3.13;;;;;;;;;;4808304;29;20464;-89
2021/12/09 05:38:27;;;;;;;12.50;2.63;;;;;;;;;;4808132;29;20945;-89
2021/12/09 05:41:03;;;;;;;9.17;2.33;;;;;;;;;;4822965;29;20536;-89
2021/12/09 05:43:30;;;;;;;9.17;2.13;;;;;;;;;;4808042;29;20489;-89
2021/12/09 05:45:58;;;;;;;7.90;2.10;;;;;;;;;;4807595;29;20566;-89
2021/12/09 05:48:26;;;;;;;14.50;3.70;;;;;;;;;;4809409;29;20453;-90
2021/12/09 05:50:54;;;;;;;13.83;2.57;;;;;;;;;;4811985;29;20456;-89
2021/12/09 05:53:22;;;;;;;8.73;2.47;;;;;;;;;;4795925;29;20525;-89
2021/12/09 05:55:51;;;;;;;10.07;2.57;;;;;;;;;;4822140;29;20705;-88
2021/12/09 05:58:20;;;;;;;12.57;2.90;;;;;;;;;;4807740;29;20486;-89
2021/12/09 06:00:48;;;;;;;15.77;2.93;;;;;;;;;;4825377;29;20493;-89
2021/12/09 06:03:16;;;;;;;8.40;2.37;;;;;;;;;;4796397;29;20453;-88
2021/12/09 06:05:44;;;;;;;5.87;2.37;;;;;;;;;;4795713;29;20493;-90
2021/12/09 06:08:12;;;;;;;8.90;2.50;;;;;;;;;;4795897;29;20510;-89
2021/12/09 06:10:39;;;;;;;13.03;2.57;;;;;;;;;;4795902;29;20816;-89
2021/12/09 06:13:07;;;;;;;15.73;2.57;;;;;;;;;;4810963;29;20451;-90
2021/12/09 06:15:34;;;;;;;5.70;2.67;;;;;;;;;;4795841;29;20849;-89
2021/12/09 06:18:03;;;;;;;10.77;3.13;;;;;;;;;;4825865;29;20952;-89
2021/12/09 06:20:31;;;;;;;13.90;3.87;;;;;;;;;;4825282;29;20520;-89
2021/12/09 06:23:00;;;;;;;12.67;3.67;;;;;;;;;;4810423;29;20983;-89
2021/12/09 06:25:31;;;;;;;13.60;3.37;;;;;;;;;;4825245;29;20453;-89
2021/12/09 06:27:59;;;;;;;9.40;3.30;;;;;;;;;;4826251;29;20450;-88
2021/12/09 06:30:26;;;;;;;11.27;3.50;;;;;;;;;;4822128;29;20489;-90
2021/12/09 06:32:54;;;;;;;12.10;3.27;;;;;;;;;;4792451;29;20454;-90
2021/12/09 06:35:22;;;;;;;8.87;2.20;;;;;;;;;;4792331;29;20949;-89
2021/12/09 06:37:49;;;;;;;10.50;2.30;;;;;;;;;;4792640;29;20442;-90
2021/12/09 06:40:18;;;;;;;17.00;2.53;;;;;;;;;;4788772;29;20518;-90
2021/12/09 06:42:45;;;;;;;9.77;2.60;;;;;;;;;;4792675;29;20877;-90
2021/12/09 06:45:13;;;;;;;15.60;2.90;;;;;;;;;;4777393;29;20510;-90
2021/12/09 06:47:40;;;;;;;10.43;2.90;;;;;;;;;;4792995;29;20532;-90
2021/12/09 06:50:08;;;;;;;9.30;2.60;;;;;;;;;;4809685;29;20824;-88
2021/12/09 06:52:36;;;;;;;16.50;3.23;;;;;;;;;;4781805;29;20811;-90
2021/12/09 06:55:05;;;;;;;8.80;2.57;;;;;;;;;;4806576;29;20458;-89
2021/12/09 06:57:33;;;;;;;8.43;3.93;;;;;;;;;;4824218;29;20458;-92
2021/12/09 07:00:01;;;;;;;10.30;2.40;;;;;;;;;;4824509;29;20493;-87
2021/12/09 07:02:29;;;;;;;11.43;2.60;;;;;;;;;;4820643;29;20450;-90
2021/12/09 07:04:58;;;;;;;11.50;2.40;;;;;;;;;;4807468;29;20934;-87
2021/12/09 07:07:29;;;;;;;14.87;2.47;;;;;;;;;;4837814;29;20459;-92
2021/12/09 07:09:58;;;;;;;13.03;3.20;;;;;;;;;;4804173;29;21003;-92
2021/12/09 07:12:28;;;;;;;11.97;3.73;;;;;;;;;;4813189;29;20543;-89
2021/12/09 07:14:58;;;;;;;12.77;3.43;;;;;;;;;;4822878;29;20454;-90
2021/12/09 07:17:25;;;;;;;17.23;3.40;;;;;;;;;;4825141;29;20454;-89
2021/12/09 07:19:53;;;;;;;17.80;3.00;;;;;;;;;;4809246;29;20485;-89
2021/12/09 07:22:21;;;;;;;14.77;2.80;;;;;;;;;;4795071;29;20458;-89
2021/12/09 07:24:49;;;;;;;11.37;3.07;;;;;;;;;;4794914;29;20449;-89
2021/12/09 07:27:18;;;;;;;8.90;3.07;;;;;;;;;;4805932;29;20888;-87
2021/12/09 07:29:48;;;;;;;12.50;3.50;;;;;;;;;;4825949;29;20454;-89
2021/12/09 07:32:20;;;;;;;9.70;3.90;;;;;;;;;;4811616;29;20460;-89
2021/12/09 07:34:49;;;;;;;9.10;3.53;;;;;;;;;;4824285;29;20481;-89
2021/12/09 07:37:17;;;;;;;6.77;2.77;;;;;;;;;;4820973;29;20512;-89
2021/12/09 07:39:44;;;;;;;7.17;3.00;;;;;;;;;;4821731;29;20466;-89
2021/12/09 07:42:13;;;;;;;17.20;3.60;;;;;;;;;;4808993;29;20990;-89
2021/12/09 07:44:41;;;;;;;9.27;2.73;;;;;;;;;;4824236;29;20452;-89
2021/12/09 07:47:09;;;;;;;10.10;2.80;;;;;;;;;;4824379;29;20813;-89
2021/12/09 07:49:38;;;;;;;14.67;2.47;;;;;;;;;;4823164;29;20453;-89
2021/12/09 07:52:06;;;;;;;7.50;2.17;;;;;;;;;;4827780;29;20459;-89
2021/12/09 07:54:42;;;;;;;14.07;2.27;;;;;;;;;;4827605;29;20459;-88
2021/12/09 07:57:10;;;;;;;11.37;2.57;;;;;;;;;;4816071;29;20524;-89
2021/12/09 07:59:37;;;;;;;7.10;2.20;;;;;;;;;;4809287;29;20453;-89
2021/12/09 08:02:11;;;;;;;11.00;2.73;;;;;;;;;;4809275;29;20488;-89
2021/12/09 08:04:39;;;;;;;17.10;2.83;;;;;;;;;;4808868;29;20448;-88
2021/12/09 08:07:08;;;;;;;10.23;2.80;;;;;;;;;;4808780;29;20446;-88
2021/12/09 08:09:36;;;;;;;8.93;3.20;;;;;;;;;;4828380;29;20448;-88
2021/12/09 08:12:06;;;;;;;10.40;2.90;;;;;;;;;;4827752;29;21034;-89
2021/12/09 08:14:33;;;;;;;9.20;2.90;;;;;;;;;;4801254;29;20485;-89
2021/12/09 08:17:33;;;;;;;6.67;2.57;;;;;;;;;;4823732;29;20867;-89
2021/12/09 08:20:00;;;;;;;9.27;2.23;;;;;;;;;;4825322;29;20466;-88
2021/12/09 08:22:28;;;;;;;11.53;2.30;;;;;;;;;;4820030;29;20874;-89
2021/12/09 08:24:56;;;;;;;8.63;2.80;;;;;;;;;;4805066;29;21030;-88
2021/12/09 08:27:24;;;;;;;7.27;2.37;;;;;;;;;;4839469;29;20440;-89
2021/12/09 08:30:01;;;;;;;14.70;2.57;;;;;;;;;;4820114;29;20925;-89
2021/12/09 08:32:28;;;;;;;11.93;3.23;;;;;;;;;;4823118;29;20944;-88
2021/12/09 08:34:56;;;;;;;9.70;3.17;;;;;;;;;;4793610;29;20441;-89
2021/12/09 08:37:24;;;;;;;14.87;5.23;;;;;;;;;;4793555;29;20457;-89
2021/12/09 08:39:53;;;;;;;18.00;6.67;;;;;;;;;;4808687;29;20696;-88
2021/12/09 08:42:21;;;;;;;22.33;10.83;;;;;;;;;;4817321;29;20449;-88
2021/12/09 08:44:48;;;;;;;27.53;11.47;;;;;;;;;;4819422;29;20497;-89
2021/12/09 08:47:16;;;;;;;19.80;8.80;;;;;;;;;;4805403;29;20446;-88
2021/12/09 08:49:45;;;;;;;21.63;7.63;;;;;;;;;;4827773;29;20449;-87
2021/12/09 08:52:13;;;;;;;17.03;8.47;;;;;;;;;;4821613;29;20445;-88
2021/12/09 08:54:40;;;;;;;12.60;5.80;;;;;;;;;;4837084;29;20798;-87
2021/12/09 08:57:07;;;;;;;15.03;7.17;;;;;;;;;;4807586;29;20626;-89
2021/12/09 08:59:35;;;;;;;18.73;6.67;;;;;;;;;;4822836;29;20544;-88
2021/12/09 09:02:06;;;;;;;14.33;5.83;;;;;;;;;;4807507;29;20493;-89
2021/12/09 09:04:48;;;;;;;28.50;8.60;;;;;;;;;;4807539;29;20445;-89
2021/12/09 09:07:16;;;;;;;27.13;7.60;;;;;;;;;;4789427;29;20465;-93
2021/12/09 09:09:44;;;;;;;27.43;7.27;;;;;;;;;;4818187;29;20454;-92
2021/12/09 09:12:14;;;;;;;35.10;6.20;;;;;;;;;;4823722;29;20457;-92
2021/12/09 09:14:49;;;;;;;31.27;5.97;;;;;;;;;;4808868;29;20481;-92
2021/12/09 09:17:16;;;;;;;27.87;4.27;;;;;;;;;;4821635;29;20453;-84
2021/12/09 09:19:45;;;;;;;45.27;5.20;;;;;;;;;;4831910;29;20449;-83
2021/12/09 09:22:14;;;;;;;26.27;4.33;;;;;;;;;;4822680;29;20481;-89
2021/12/09 09:24:41;;;;;;;29.43;5.10;;;;;;;;;;4821603;29;21014;-88
2021/12/09 09:27:18;;;;;;;24.90;5.17;;;;;;;;;;4823983;29;20508;-95
2021/12/09 09:30:05;;;;;;;33.83;5.60;;;;;;;;;;4835542;29;20518;-96
2021/12/09 09:32:38;;;;;;;25.70;4.40;;;;;;;;;;4838047;29;20854;-94
2021/12/09 09:42:20;;;;;;;37.87;4.20;;;;;;;;;;4824676;29;20479;-92
2021/12/09 09:44:55;;;;;;;24.20;5.00;;;;;;;;;;4819991;29;20855;-92
2021/12/09 09:48:07;;;;;;;42.27;5.20;;;;;;;;;;4812021;29;20453;-93
2021/12/09 09:50:39;;;;;;;20.83;3.60;;;;;;;;;;4812194;29;20492;-92
2021/12/09 09:56:40;;;;;;;27.30;4.13;;;;;;;;;;4827955;29;20437;-93
2021/12/09 09:59:17;;;;;;;21.10;3.80;;;;;;;;;;4827076;29;20441;-94
2021/12/09 10:02:04;;;;;;;27.70;5.43;;;;;;;;;;4811710;29;20587;-92
2021/12/09 10:08:00;;;;;;;26.63;5.50;;;;;;;;;;4828180;29;20428;-93
2021/12/09 10:10:38;;;;;;;19.20;4.53;;;;;;;;;;4827254;29;20809;-93
2021/12/09 10:16:28;;;;;;;26.70;4.17;;;;;;;;;;4827974;29;20444;-93
2021/12/09 10:28:37;;;;;;;15.50;3.00;;;;;;;;;;4827564;29;20936;-92
2021/12/09 15:46:38;;;;;;;6.13;1.33;;;;;;;15.98;nan;102593.84;4827609;29;20451;-94
2021/12/09 15:49:14;;;;;;;16.57;1.80;;;;;;;15.86;nan;102591.53;4825608;29;20464;-94
2021/12/09 15:51:42;;;;;;;5.00;1.10;;;;;;;15.85;nan;102599.97;4795637;29;20461;-95
2021/12/09 15:54:26;;;;;;;6.13;1.37;;;;;;;15.79;nan;102623.59;4810043;29;20477;-94
2021/12/09 15:57:00;;;;;;;7.03;1.20;;;;;;;15.73;nan;102613.34;4815885;29;20462;-95
2021/12/09 15:59:40;;;;;;;8.20;1.40;;;;;;;15.63;nan;102601.66;4807422;29;20462;-93
2021/12/09 16:02:21;;;;;;;4.57;1.40;;;;;;;15.66;nan;102612.34;4768233;29;20481;-94
2021/12/09 16:05:05;;;;;;;8.83;1.07;;;;;;;15.60;nan;102601.16;4794734;29;20482;-94
2021/12/09 16:08:02;;;;;;;7.97;1.00;;;;;;;15.56;nan;102606.19;4794882;29;20522;-91
2021/12/09 16:10:41;;;;;;;8.57;1.20;;;;;;;15.47;nan;102591.56;4821266;29;20530;-95
2021/12/09 16:17:00;;;;;;;5.23;0.90;;;;;;;15.48;nan;102595.19;4825818;29;20537;-95
2021/12/09 16:23:16;;;;;;;3.33;1.00;;;;;;;15.38;nan;102589.91;4825871;29;20562;-96
2021/12/09 16:25:47;;;;;;;8.70;1.40;;;;;;;15.34;nan;102587.69;4806916;29;20465;-95
2021/12/09 16:28:35;;;;;;;7.13;1.33;;;;;;;15.40;nan;102611.75;4808989;29;20458;-94
2021/12/09 16:31:36;;;;;;;7.50;1.33;;;;;;;15.40;nan;102600.72;4824137;29;20473;-95
2021/12/09 16:34:11;;;;;;;9.47;1.40;;;;;;;15.33;nan;102600.59;4824811;29;20460;-95
2021/12/09 16:36:51;;;;;;;8.10;1.20;;;;;;;15.31;nan;102607.31;4805702;29;20458;-95
2021/12/09 16:39:19;;;;;;;7.30;1.47;;;;;;;15.19;nan;102596.72;4806123;29;20496;-95
2021/12/09 16:41:46;;;;;;;5.27;1.20;;;;;;;15.18;nan;102602.41;4791383;29;20486;-95
2021/12/09 16:44:43;;;;;;;7.63;1.50;;;;;;;15.19;nan;102604.13;4762113;29;20511;-94
2021/12/09 16:47:21;;;;;;;7.17;1.43;;;;;;;15.02;nan;102569.41;4789070;29;20473;-95
2021/12/09 16:57:50;;;;;;;15.20;2.67;;;;;;;14.83;nan;102581.69;4827461;29;20519;-94
2021/12/09 17:04:16;;;;;;;10.47;3.10;;;;;;;14.85;nan;102587.88;4825359;29;20444;-95
2021/12/09 17:07:18;;;;;;;11.77;2.20;;;;;;;14.86;nan;102590.44;4809019;29;20530;-96
2021/12/09 17:10:35;;;;;;;13.63;2.50;;;;;;;14.86;nan;102593.19;4809119;29;20461;-93
2021/12/09 17:21:22;;;;;;;11.83;2.60;;;;;;;14.69;nan;102608.03;4826025;29;20500;-94
2021/12/09 17:23:50;;;;;;;6.57;1.43;;;;;;;14.55;nan;102583.16;4808960;29;20461;-95
2021/12/09 17:26:20;;;;;;;13.60;2.00;;;;;;;14.50;nan;102590.03;4808495;29;20821;-96
2021/12/09 17:28:48;;;;;;;6.20;1.57;;;;;;;14.55;nan;102605.16;4823734;29;20464;-94
2021/12/09 17:31:46;;;;;;;6.53;1.47;;;;;;;14.52;nan;102612.72;4809105;29;21000;-95
2021/12/09 17:34:24;;;;;;;5.73;1.77;;;;;;;14.48;nan;102622.34;4823577;29;20461;-94
2021/12/09 17:37:03;;;;;;;13.20;3.00;;;;;;;14.36;nan;102596.22;4808521;29;20461;-95
2021/12/09 17:52:41;;;;;;;9.93;1.80;;;;;;;14.22;nan;102605.16;4806944;29;20560;-95
2021/12/09 17:59:33;;;;;;;11.37;2.50;;;;;;;14.11;nan;102609.09;4806560;29;20803;-96
2021/12/09 18:05:57;;;;;;;12.80;2.40;;;;;;;14.04;nan;102609.97;4792041;30;20430;-95
2021/12/09 18:12:19;;;;;;;15.00;2.33;;;;;;;14.00;nan;102614.09;4803167;29;20466;-94
2021/12/09 18:14:57;;;;;;;12.70;2.03;;;;;;;13.96;nan;102619.06;4793854;29;20466;-94
2021/12/09 18:21:06;;;;;;;14.73;2.87;;;;;;;13.81;nan;102607.88;4808480;29;20448;-96
2021/12/09 18:23:35;;;;;;;9.20;2.80;;;;;;;13.89;nan;102619.91;4791868;29;20462;-94
2021/12/09 18:26:05;;;;;;;18.50;2.73;;;;;;;13.81;nan;102613.38;4761044;29;20469;-95
2021/12/09 18:28:40;;;;;;;9.03;2.87;;;;;;;13.83;nan;102627.81;4772381;30;20469;-94
2021/12/09 18:31:15;;;;;;;18.13;3.50;;;;;;;13.78;nan;102630.19;4775016;29;20518;-95
2021/12/09 18:33:46;;;;;;;13.33;3.50;;;;;;;13.82;nan;102631.59;4777064;29;20465;-96
2021/12/09 18:36:45;;;;;;;13.00;4.10;;;;;;;13.80;nan;102641.03;4780856;29;20519;-94
2021/12/09 18:39:36;;;;;;;14.23;4.10;;;;;;;13.75;nan;102646.16;4807334;29;20519;-96
2021/12/09 18:45:53;;;;;;;12.13;4.57;;;;;;;13.62;nan;102635.66;4827198;29;20445;-95
2021/12/09 18:48:24;;;;;;;20.50;8.03;;;;;;;13.59;nan;102629.63;4811344;29;20468;-95
2021/12/09 18:51:23;;;;;;;24.53;7.90;;;;;;;13.59;nan;102632.38;4811858;29;20461;-94
2021/12/09 18:54:18;;;;;;;15.10;4.33;;;;;;;13.58;nan;102644.41;4832662;29;20472;-94
2021/12/09 18:56:48;;;;;;;23.47;3.33;;;;;;;13.58;nan;102637.03;4844407;29;20513;-95
2021/12/09 18:59:26;;;;;;;21.70;6.37;;;;;;;13.48;nan;102628.03;4788730;29;20956;-94
2021/12/09 19:01:59;;;;;;;20.43;7.03;;;;;;;13.54;nan;102649.38;4810818;29;20488;-93
2021/12/09 19:11:47;;;;;;;21.73;3.80;;;;;;;13.33;nan;102629.72;4826167;29;20494;-93
2021/12/09 19:14:48;;;;;;;18.50;5.23;;;;;;;13.40;nan;102653.63;4810926;29;20472;-94
2021/12/09 19:17:48;;;;;;;18.33;5.60;;;;;;;13.39;nan;102651.03;4807487;29;20976;-94
2021/12/09 19:20:34;;;;;;;22.90;6.43;;;;;;;13.28;nan;102634.81;4831273;29;20516;-94
2021/12/09 19:26:44;;;;;;;22.80;9.40;;;;;;;13.19;nan;102639.44;4826267;29;20460;-93
2021/12/09 19:33:08;;;;;;;21.97;8.27;;;;;;;13.27;nan;102646.88;4826596;29;20440;-92
2021/12/09 19:55:37;;;;;;;24.90;9.90;;;;;;;12.75;nan;102652.34;4824495;29;20460;-92
2021/12/09 19:58:12;;;;;;;20.07;7.33;;;;;;;12.64;nan;102650.75;4810036;29;21002;-93
2021/12/09 20:00:45;;;;;;;18.63;7.10;;;;;;;12.60;nan;102653.97;4795380;29;20464;-93
2021/12/09 20:03:41;;;;;;;12.07;4.47;;;;;;;12.53;nan;102648.25;4821486;29;20486;-94
2021/12/09 20:06:48;;;;;;;17.30;4.57;;;;;;;12.49;nan;102643.28;4824532;29;20437;-94
2021/12/09 20:09:23;;;;;;;13.37;5.10;;;;;;;12.32;nan;102623.94;4809510;29;20513;-95
2021/12/09 20:12:09;;;;;;;16.50;7.73;;;;;;;12.39;nan;102641.47;4809208;29;20465;-94
2021/12/09 20:15:06;;;;;;;17.90;6.83;;;;;;;12.40;nan;102647.81;4793049;29;20973;-96
2021/12/09 20:17:40;;;;;;;22.03;8.27;;;;;;;12.24;nan;102631.25;4808064;29;20518;-92
2021/12/09 20:20:14;;;;;;;18.27;6.93;;;;;;;12.30;nan;102647.94;4810013;29;20462;-93
2021/12/09 20:23:00;;;;;;;18.13;7.47;;;;;;;12.23;nan;102637.75;4794982;29;20560;-91
2021/12/09 20:25:29;;;;;;;18.33;7.20;;;;;;;12.19;nan;102639.94;4780438;29;20472;-92
2021/12/09 20:32:15;;;;;;;18.43;6.43;;;;;;;11.97;nan;102645.88;4825712;29;20561;-91
2021/12/09 20:39:03;;;;;;;15.53;5.50;;;;;;;11.91;nan;102646.53;4807359;29;20475;-92
2021/12/09 20:42:06;;;;;;;14.63;6.00;;;;;;;11.87;nan;102656.06;4792328;29;20479;-91
2021/12/09 20:45:09;;;;;;;;;;;;;;;;;;;;;
2021/12/09 20:48:33;;;;;;;28.47;5.30;;;;;;;11.68;nan;102652.41;4812632;29;20480;-91
2021/12/09 20:51:40;;;;;;;15.43;6.90;;;;;;;11.60;nan;102646.84;4801667;29;20481;-90
2021/12/09 20:54:12;;;;;;;16.43;6.93;;;;;;;11.52;nan;102644.03;4824017;29;20457;-91
2021/12/09 20:57:01;;;;;;;17.83;4.40;;;;;;;11.52;nan;102644.03;4806644;29;20465;-91
2021/12/09 20:59:40;;;;;;;21.40;4.80;;;;;;;11.46;nan;102632.81;4823927;29;20522;-90
2021/12/09 21:02:22;;;;;;;9.60;4.70;;;;;;;11.44;nan;102616.53;4809157;29;20481;-91
2021/12/09 21:05:04;;;;;;;14.67;3.50;;;;;;;11.34;nan;102621.22;4806224;29;20477;-91
2021/12/09 21:07:38;;;;;;;21.07;4.23;;;;;;;11.35;nan;102620.22;4791061;29;20944;-90
2021/12/09 21:10:39;;;;;;;11.23;3.53;;;;;;;11.38;nan;102619.88;4789585;29;20458;-90
2021/12/09 21:13:57;;;;;;;11.10;2.47;;;;;;;11.32;nan;102615.03;4769401;30;20485;-90
